Time;durP1;ratioP1;P1;durP2;ratioP2;P2;SDS_P1;SDS_P2;PMS_P1;PMS_P2;Temp;Humidity;BMP_temperature;BMP_pressure;BME280_temperature;BME280_humidity;BME280_pressure;Samples;Min_cycle;Max_cycle;Signal;HPM_P1;HPM_P2
2022/05/22 00:01:12;;;;;;;2.60;1.33;;;;;;;10.14;100.00;99555.59;5063730;28;20494;-53
2022/05/22 00:03:57;;;;;;;1.98;1.30;;;;;;;10.10;100.00;99577.47;5068091;28;20225;-54
2022/05/22 00:06:41;;;;;;;2.72;1.33;;;;;;;10.08;100.00;99574.06;5064719;28;20479;-54
2022/05/22 00:09:28;;;;;;;1.35;0.88;;;;;;;10.07;100.00;99570.59;5064849;28;20042;-53
2022/05/22 00:12:13;;;;;;;1.70;1.20;;;;;;;10.01;100.00;99569.91;5066070;28;20537;-54
2022/05/22 00:14:58;;;;;;;2.05;0.88;;;;;;;9.81;100.00;99565.16;5065436;28;20063;-53
2022/05/22 00:17:42;;;;;;;1.45;1.33;;;;;;;9.83;100.00;99569.47;5064902;28;20045;-53
2022/05/22 00:20:26;;;;;;;1.80;1.15;;;;;;;9.78;100.00;99576.59;5066350;28;20090;-54
2022/05/22 00:23:11;;;;;;;3.75;1.30;;;;;;;9.72;100.00;99584.59;5065129;28;20041;-53
2022/05/22 00:25:56;;;;;;;3.30;1.30;;;;;;;9.81;100.00;99583.47;5067566;28;20036;-53
2022/05/22 00:28:41;;;;;;;1.73;1.30;;;;;;;9.57;100.00;99582.34;5064148;28;20103;-54
2022/05/22 00:31:25;;;;;;;2.40;1.42;;;;;;;9.47;100.00;99589.56;5065869;28;20122;-53
2022/05/22 00:34:12;;;;;;;2.28;1.35;;;;;;;9.60;100.00;99584.88;5067379;28;20056;-53
2022/05/22 00:36:56;;;;;;;2.67;1.17;;;;;;;9.58;100.00;99586.66;5065085;28;20173;-54
2022/05/22 00:39:41;;;;;;;2.15;1.17;;;;;;;9.64;100.00;99575.22;5065628;28;20052;-54
2022/05/22 00:42:25;;;;;;;2.25;1.50;;;;;;;9.44;100.00;99578.31;5067403;28;20475;-54
2022/05/22 00:45:10;;;;;;;4.65;2.60;;;;;;;9.34;100.00;99580.28;5061054;28;20056;-54
2022/05/22 00:47:54;;;;;;;3.15;2.10;;;;;;;9.39;100.00;99582.78;5059798;28;20134;-54
2022/05/22 00:50:39;;;;;;;2.95;1.83;;;;;;;9.43;100.00;99587.06;5061926;28;20044;-54
2022/05/22 00:53:26;;;;;;;3.25;2.08;;;;;;;9.31;100.00;99575.97;5061943;28;20130;-53
2022/05/22 00:56:16;;;;;;;3.80;1.70;;;;;;;9.39;100.00;99580.16;5059242;28;20058;-54
2022/05/22 00:59:04;;;;;;;3.38;2.15;;;;;;;9.16;100.00;99565.03;5061394;28;20060;-54
2022/05/22 01:01:49;;;;;;;2.38;1.85;;;;;;;9.20;100.00;99569.31;5061637;28;20063;-54
2022/05/22 01:04:36;;;;;;;2.85;2.30;;;;;;;9.17;100.00;99574.59;5059979;28;20063;-54
2022/05/22 01:07:20;;;;;;;3.25;2.28;;;;;;;9.04;100.00;99574.88;5064647;28;20803;-54
2022/05/22 01:10:05;;;;;;;4.85;1.90;;;;;;;9.09;100.00;99566.91;5063261;28;20063;-54
2022/05/22 01:12:50;;;;;;;3.10;1.73;;;;;;;9.05;100.00;99578.34;5062027;28;20097;-54
2022/05/22 01:15:34;;;;;;;3.45;2.33;;;;;;;9.11;100.00;99568.59;5062399;28;20118;-54
2022/05/22 01:18:19;;;;;;;4.88;2.22;;;;;;;9.01;100.00;99579.31;5075956;28;20044;-53
2022/05/22 01:21:10;;;;;;;4.93;2.30;;;;;;;9.05;100.00;99567.88;5064145;28;20041;-54
2022/05/22 01:23:55;;;;;;;4.50;2.20;;;;;;;9.07;100.00;99573.94;5064179;28;20048;-54
2022/05/22 01:26:43;;;;;;;4.78;2.00;;;;;;;9.10;100.00;99571.28;5060673;28;20105;-54
2022/05/22 01:29:39;;;;;;;4.35;2.00;;;;;;;9.04;100.00;99582.72;5060669;28;20056;-53
2022/05/22 01:32:23;;;;;;;5.00;2.25;;;;;;;9.08;100.00;99578.28;5062224;28;20390;-54
2022/05/22 01:35:10;;;;;;;3.55;1.70;;;;;;;8.98;100.00;99574.16;5062101;28;20059;-54
2022/05/22 01:37:55;;;;;;;3.50;2.13;;;;;;;9.04;100.00;99566.19;5059252;28;20039;-54
2022/05/22 01:40:41;;;;;;;4.88;2.30;;;;;;;9.08;100.00;99573.91;5059451;28;20048;-54
2022/05/22 01:43:25;;;;;;;8.05;2.28;;;;;;;9.15;100.00;99571.16;5060296;28;20150;-54
2022/05/22 01:46:10;;;;;;;4.78;1.67;;;;;;;9.13;100.00;99571.16;5057627;28;20083;-54
2022/05/22 01:48:56;;;;;;;3.90;2.13;;;;;;;9.12;100.00;99570.31;5059806;28;20545;-54
2022/05/22 01:51:43;;;;;;;4.50;1.70;;;;;;;9.12;100.00;99564.22;5058468;28;20048;-54
2022/05/22 01:54:29;;;;;;;3.15;2.05;;;;;;;9.01;100.00;99553.19;5061201;28;20056;-53
2022/05/22 01:57:16;;;;;;;3.63;2.17;;;;;;;9.09;100.00;99574.75;5062347;28;20067;-53
2022/05/22 02:00:00;;;;;;;3.55;1.95;;;;;;;9.11;100.00;99563.38;5063524;28;20780;-53
2022/05/22 02:02:47;;;;;;;3.50;2.05;;;;;;;9.05;100.00;99570.50;5063934;28;20102;-54
2022/05/22 02:05:43;;;;;;;5.65;2.85;;;;;;;9.10;100.00;99563.44;5066062;28;20052;-54
2022/05/22 02:08:28;;;;;;;6.18;2.40;;;;;;;8.96;100.00;99553.28;5065468;28;20098;-53
2022/05/22 02:11:13;;;;;;;6.40;1.58;;;;;;;9.06;100.00;99557.38;5091112;28;20052;-54
2022/05/22 02:14:00;;;;;;;6.38;1.85;;;;;;;9.05;100.00;99558.28;5063536;28;20044;-54
2022/05/22 02:16:44;;;;;;;3.13;1.40;;;;;;;9.06;100.00;99546.94;5063816;28;20079;-54
2022/05/22 02:19:29;;;;;;;3.58;2.03;;;;;;;9.00;100.00;99551.44;5065873;28;20040;-54
2022/05/22 02:22:14;;;;;;;6.90;1.88;;;;;;;8.97;100.00;99557.63;5062981;28;20052;-54
2022/05/22 02:24:58;;;;;;;5.07;2.28;;;;;;;8.95;100.00;99546.34;5062273;28;20049;-54
2022/05/22 02:27:43;;;;;;;1.80;1.40;;;;;;;8.89;100.00;99554.31;5067056;28;20071;-54
2022/05/22 02:30:33;;;;;;;5.25;1.88;;;;;;;8.88;100.00;99547.38;5062202;28;20588;-54
2022/05/22 02:33:18;;;;;;;2.75;1.50;;;;;;;8.86;100.00;99549.16;5068418;28;20079;-54
2022/05/22 02:36:14;;;;;;;3.97;1.60;;;;;;;8.80;100.00;99546.66;5063249;28;20053;-54
2022/05/22 02:38:58;;;;;;;3.92;1.50;;;;;;;8.75;100.00;99548.53;5061918;28;20048;-54
2022/05/22 02:41:42;;;;;;;3.50;1.08;;;;;;;8.82;100.00;99544.91;5063658;28;20537;-53
2022/05/22 02:44:27;;;;;;;2.72;1.45;;;;;;;8.74;100.00;99529.41;5078218;28;20041;-54
2022/05/22 02:47:11;;;;;;;3.40;1.30;;;;;;;8.79;100.00;99542.34;5063686;28;20068;-54
2022/05/22 02:49:55;;;;;;;5.22;1.60;;;;;;;8.75;100.00;99545.94;5061945;28;20102;-54
2022/05/22 02:52:40;;;;;;;2.95;1.23;;;;;;;8.59;100.00;99537.56;5061517;28;20052;-54
2022/05/22 02:55:26;;;;;;;5.95;1.75;;;;;;;8.65;100.00;99543.50;5060179;28;20539;-54
2022/05/22 02:58:11;;;;;;;8.55;1.40;;;;;;;8.69;100.00;99543.44;5072347;28;20063;-54
2022/05/22 03:00:56;;;;;;;8.52;1.83;;;;;;;8.62;100.00;99543.56;5057593;28;20048;-54
2022/05/22 03:03:41;;;;;;;5.80;1.58;;;;;;;8.62;100.00;99535.75;5061188;28;20071;-54
2022/05/22 03:06:38;;;;;;;5.20;1.17;;;;;;;8.57;100.00;99544.56;5059853;28;20134;-54
2022/05/22 03:09:23;;;;;;;3.28;1.63;;;;;;;8.60;100.00;99541.88;5059358;28;20049;-54
2022/05/22 03:12:18;;;;;;;3.95;1.40;;;;;;;8.70;100.00;99540.78;5059464;28;20041;-54
2022/05/22 03:15:08;;;;;;;4.43;1.20;;;;;;;8.63;100.00;99542.66;5062444;28;20133;-54
2022/05/22 03:17:57;;;;;;;6.63;1.50;;;;;;;8.61;100.00;99549.69;5058603;28;20115;-54
2022/05/22 03:20:42;;;;;;;6.80;1.50;;;;;;;8.72;100.00;99549.47;5058181;28;20071;-54
2022/05/22 03:23:27;;;;;;;2.78;1.40;;;;;;;8.67;100.00;99551.28;5060251;28;20135;-54
2022/05/22 03:26:11;;;;;;;4.65;1.60;;;;;;;8.63;100.00;99553.13;5060366;28;20703;-54
2022/05/22 03:28:56;;;;;;;3.50;1.25;;;;;;;8.65;100.00;99553.97;5059356;28;20787;-53
2022/05/22 03:31:41;;;;;;;2.25;1.10;;;;;;;8.70;100.00;99558.22;5060469;28;20182;-53
2022/05/22 03:34:26;;;;;;;2.28;1.30;;;;;;;8.71;100.00;99554.69;5059372;28;20605;-54
2022/05/22 03:37:14;;;;;;;2.00;1.25;;;;;;;8.72;100.00;99549.47;5058719;28;20059;-54
2022/05/22 03:39:59;;;;;;;4.05;1.45;;;;;;;8.66;100.00;99539.16;5060617;28;20704;-53
2022/05/22 03:42:44;;;;;;;6.63;1.55;;;;;;;8.63;100.00;99553.13;5060074;28;20087;-54
2022/05/22 03:45:28;;;;;;;3.78;1.48;;;;;;;8.81;100.00;99553.63;5058300;28;20504;-54
2022/05/22 03:48:13;;;;;;;5.63;1.30;;;;;;;8.84;100.00;99553.56;5058375;28;20405;-54
2022/05/22 03:50:58;;;;;;;3.03;1.30;;;;;;;9.02;100.00;99549.66;5060085;28;20044;-54
2022/05/22 03:53:43;;;;;;;5.13;1.45;;;;;;;9.11;100.00;99554.69;5085890;28;20052;-54
2022/05/22 03:56:40;;;;;;;4.13;1.73;;;;;;;9.25;100.00;99556.97;5074859;28;20052;-54
2022/05/22 03:59:30;;;;;;;5.80;1.52;;;;;;;9.43;100.00;99555.69;5060280;28;20059;-54
2022/05/22 04:02:14;;;;;;;4.25;2.05;;;;;;;9.73;100.00;99551.44;5061656;28;20044;-54
2022/05/22 04:05:02;;;;;;;4.90;1.55;;;;;;;10.15;100.00;99552.06;5064142;28;20056;-54
2022/05/22 04:07:48;;;;;;;2.90;1.30;;;;;;;10.41;100.00;99550.50;5064593;28;20044;-54
2022/05/22 04:10:39;;;;;;;5.65;1.48;;;;;;;10.79;100.00;99561.63;5064519;28;20041;-54
2022/05/22 04:13:24;;;;;;;3.33;1.70;;;;;;;11.04;100.00;99541.63;5061063;28;20059;-55
2022/05/22 04:16:11;;;;;;;4.38;1.30;;;;;;;11.11;100.00;99548.38;5061396;28;20071;-54
2022/05/22 04:18:55;;;;;;;2.72;1.25;;;;;;;11.53;100.00;99555.78;5063573;28;20493;-54
2022/05/22 04:21:39;;;;;;;2.10;1.20;;;;;;;11.50;100.00;99555.88;5063319;28;20052;-54
2022/05/22 04:27:36;;;;;;;3.50;1.08;;;;;;;11.92;100.00;99564.13;5065855;28;20068;-53
2022/05/22 04:30:22;;;;;;;6.43;1.20;;;;;;;12.27;100.00;99559.41;5072830;28;20080;-53
2022/05/22 04:33:15;;;;;;;3.72;0.85;;;;;;;12.03;100.00;99563.75;5074907;28;20062;-54
2022/05/22 04:36:00;;;;;;;3.15;1.00;;;;;;;12.23;100.00;99552.56;5063225;28;20090;-54
2022/05/22 04:38:46;;;;;;;5.70;1.17;;;;;;;12.65;100.00;99559.78;5059630;28;20051;-53
2022/05/22 04:41:30;;;;;;;1.95;0.52;;;;;;;12.90;100.00;99557.06;5064118;28;20054;-54
2022/05/22 04:44:15;;;;;;;4.35;0.60;;;;;;;13.21;100.00;99555.88;5062420;28;20196;-53
2022/05/22 04:47:00;;;;;;;8.63;0.95;;;;;;;13.06;100.00;99547.69;5063404;28;20035;-54
2022/05/22 04:49:48;;;;;;;3.03;0.40;;;;;;;13.31;100.00;99554.63;5063367;28;20539;-53
2022/05/22 04:52:33;;;;;;;3.53;0.50;;;;;;;13.86;100.00;99551.47;5061747;28;20036;-53
2022/05/22 04:55:18;;;;;;;4.93;1.08;;;;;;;13.29;100.00;99552.06;5059960;28;20048;-53
2022/05/22 04:58:02;;;;;;;5.68;0.90;;;;;;;13.56;100.00;99565.84;5060403;28;20075;-53
2022/05/22 05:00:47;;;;;;;5.00;1.10;;;;;;;13.47;100.00;99560.97;5061969;28;20051;-54
2022/05/22 05:03:34;;;;;;;3.78;0.77;;;;;;;13.76;100.00;99559.75;5061330;28;20051;-53
2022/05/22 05:06:19;;;;;;;4.20;0.70;;;;;;;14.17;100.00;99562.41;5064906;28;20831;-53
2022/05/22 05:09:06;;;;;;;4.35;0.60;;;;;;;14.46;100.00;99547.97;5062195;28;20056;-54
2022/05/22 05:11:52;;;;;;;3.33;0.60;;;;;;;14.13;100.00;99552.06;5062029;28;20126;-54
2022/05/22 05:14:37;;;;;;;3.17;0.68;;;;;;;14.25;100.00;99541.00;5090281;28;20457;-54
2022/05/22 05:17:22;;;;;;;6.43;0.70;;;;;;;14.67;100.00;99554.03;5062256;28;20452;-54
2022/05/22 05:20:10;;;;;;;4.35;0.80;;;;;;;14.80;100.00;99554.34;5063247;28;20060;-54
2022/05/22 05:23:07;;;;;;;2.97;0.80;;;;;;;13.61;100.00;99559.53;5062378;28;20048;-54
2022/05/22 05:25:59;;;;;;;3.13;0.88;;;;;;;13.65;100.00;99547.97;5063329;28;20135;-54
2022/05/22 05:28:44;;;;;;;4.32;0.60;;;;;;;13.71;100.00;99559.09;5060502;28;20510;-54
2022/05/22 05:31:30;;;;;;;5.72;1.10;;;;;;;13.87;100.00;99554.03;5062550;28;20040;-54
2022/05/22 05:34:15;;;;;;;5.97;0.88;;;;;;;14.44;100.00;99556.84;5061253;28;20048;-54
2022/05/22 05:37:20;;;;;;;2.42;0.68;;;;;;;15.13;100.00;99548.41;5059886;28;20474;-54
2022/05/22 05:40:11;;;;;;;3.65;0.95;;;;;;;15.18;100.00;99556.97;5056450;28;20075;-54
2022/05/22 05:43:01;;;;;;;3.75;0.70;;;;;;;14.31;100.00;99561.81;5058358;28;20071;-53
2022/05/22 05:45:45;;;;;;;4.30;1.38;;;;;;;13.72;100.00;99557.34;5059904;28;20068;-54
2022/05/22 05:48:30;;;;;;;5.32;0.95;;;;;;;13.65;100.00;99558.50;5059631;28;20087;-54
2022/05/22 05:51:17;;;;;;;1.17;0.40;;;;;;;13.62;100.00;99564.75;5059800;28;20059;-54
2022/05/22 05:54:09;;;;;;;4.43;0.73;;;;;;;13.48;100.00;99564.44;5063906;28;20128;-54
2022/05/22 05:57:20;;;;;;;4.80;0.95;;;;;;;13.68;100.00;99558.38;5060906;28;20041;-54
2022/05/22 06:00:13;;;;;;;3.72;0.75;;;;;;;13.18;100.00;99561.25;5060989;28;20166;-54
2022/05/22 06:03:01;;;;;;;5.03;0.77;;;;;;;13.16;100.00;99584.13;5059891;28;20045;-54
2022/05/22 06:05:47;;;;;;;4.32;1.17;;;;;;;13.48;100.00;99570.56;5087489;28;20127;-54
2022/05/22 06:08:43;;;;;;;8.57;1.48;;;;;;;13.86;100.00;99569.91;5060398;28;20548;-54
2022/05/22 06:11:41;;;;;;;5.00;0.80;;;;;;;13.93;100.00;99566.09;5060121;28;20140;-54
2022/05/22 06:14:36;;;;;;;4.30;1.00;;;;;;;14.68;100.00;99562.81;5056264;28;20048;-54
2022/05/22 06:17:43;;;;;;;3.05;0.93;;;;;;;14.20;100.00;99551.75;5062329;28;20076;-54
2022/05/22 06:20:29;;;;;;;4.72;0.60;;;;;;;14.29;100.00;99574.19;5086144;28;20510;-55
2022/05/22 06:23:20;;;;;;;3.17;1.23;;;;;;;13.99;100.00;99573.72;5057541;28;20165;-54
2022/05/22 06:26:37;;;;;;;2.60;0.57;;;;;;;13.69;100.00;99587.25;5054381;28;20048;-54
2022/05/22 06:29:49;;;;;;;3.30;0.60;;;;;;;13.90;100.00;99580.22;5061408;28;20040;-54
2022/05/22 06:33:15;;;;;;;6.65;1.45;;;;;;;13.85;100.00;99579.59;5041028;28;20558;-54
2022/05/22 06:36:17;;;;;;;3.13;0.75;;;;;;;13.67;100.00;99581.19;5035459;28;20129;-54
2022/05/22 06:42:52;;;;;;;2.83;0.55;;;;;;;13.76;100.00;99565.03;5059744;28;20494;-54
2022/05/22 06:45:52;;;;;;;6.47;1.10;;;;;;;13.73;100.00;99574.84;5055611;28;20714;-54
2022/05/22 06:49:12;;;;;;;3.15;0.47;;;;;;;13.86;100.00;99581.28;5058548;28;20047;-54
2022/05/22 06:52:23;;;;;;;6.22;1.30;;;;;;;13.68;100.00;99576.78;5055459;28;20442;-54
2022/05/22 06:55:21;;;;;;;5.13;0.50;;;;;;;14.11;100.00;99575.84;5060388;28;20040;-55
2022/05/22 06:58:25;;;;;;;4.75;0.50;;;;;;;13.56;100.00;99583.44;5062114;28;20503;-55
2022/05/22 07:01:29;;;;;;;3.08;0.75;;;;;;;14.21;100.00;99578.94;5059219;28;20071;-54
2022/05/22 07:04:14;;;;;;;5.72;0.80;;;;;;;14.04;100.00;99574.41;5061682;28;20075;-53
2022/05/22 07:06:59;;;;;;;3.80;0.63;;;;;;;13.87;100.00;99561.09;5061812;28;20151;-54
2022/05/22 07:13:44;;;;;;;10.60;2.90;;;;;;;14.22;100.00;99564.84;5040446;28;20060;-54
2022/05/22 07:17:04;;;;;;;7.22;3.20;;;;;;;16.07;100.00;99544.66;5055478;28;20056;-55
2022/05/22 07:19:56;;;;;;;8.07;2.92;;;;;;;15.61;100.00;99557.50;5061554;28;20083;-55
2022/05/22 07:22:59;;;;;;;;;;;;;;;16.26;100.00;99550.69;5062099;28;20060;-55
2022/05/22 07:26:08;;;;;;;3.47;0.63;;;;;;;16.96;100.00;99550.47;5062302;28;20074;-54
2022/05/22 07:29:16;;;;;;;2.75;1.10;;;;;;;17.52;100.00;99549.94;5060345;28;20059;-55
2022/05/22 07:32:09;;;;;;;2.70;0.47;;;;;;;16.00;100.00;99553.81;5062722;28;20044;-55
2022/05/22 07:35:18;;;;;;;3.85;0.30;;;;;;;16.69;100.00;99558.97;5060838;28;20061;-55
2022/05/22 07:38:10;;;;;;;;;;;;;;;16.98;100.00;99549.47;5062584;28;20102;-55
2022/05/22 07:41:24;;;;;;;4.07;0.70;;;;;;;16.87;100.00;99546.56;5033108;28;19989;-54
2022/05/22 07:44:30;;;;;;;1.30;0.40;;;;;;;18.10;100.00;99544.81;5061480;28;20589;-54
2022/05/22 07:47:35;;;;;;;2.83;0.52;;;;;;;16.34;100.00;99559.03;5059842;28;20603;-54
2022/05/22 07:50:29;;;;;;;2.33;0.68;;;;;;;17.03;100.00;99549.22;5059459;28;20496;-54
2022/05/22 07:53:32;;;;;;;2.85;0.80;;;;;;;16.69;100.00;99551.03;5062770;28;20429;-54
2022/05/22 07:56:35;;;;;;;3.15;0.40;;;;;;;16.58;100.00;99551.63;5063504;28;20361;-54
2022/05/22 07:59:41;;;;;;;2.33;0.43;;;;;;;16.42;100.00;99561.28;5085592;28;20052;-54
2022/05/22 08:02:52;;;;;;;1.52;0.70;;;;;;;16.93;100.00;99546.22;5060527;28;20056;-54
2022/05/22 08:05:37;;;;;;;2.13;0.65;;;;;;;16.57;100.00;99549.91;5061476;28;20411;-55
2022/05/22 08:08:24;;;;;;;1.17;0.30;;;;;;;16.15;100.00;99552.16;5057331;28;20045;-55
2022/05/22 08:11:18;;;;;;;4.55;0.60;;;;;;;15.58;100.00;99547.94;5059098;28;20059;-55
2022/05/22 08:14:08;;;;;;;2.88;0.70;;;;;;;15.64;100.00;99542.38;5055748;28;20049;-54
2022/05/22 08:16:58;;;;;;;3.55;0.45;;;;;;;16.55;100.00;99535.06;5058216;28;20040;-53
2022/05/22 08:19:42;;;;;;;3.60;0.50;;;;;;;17.93;100.00;99541.38;5057628;28;20191;-54
2022/05/22 08:22:56;;;;;;;4.15;0.63;;;;;;;18.04;100.00;99535.44;5058866;28;20049;-54
2022/05/22 08:26:01;;;;;;;2.88;0.50;;;;;;;17.47;100.00;99532.59;5059046;28;20457;-55
2022/05/22 08:28:47;;;;;;;1.02;0.30;;;;;;;17.79;100.00;99530.75;5054075;28;20412;-54
2022/05/22 08:31:31;;;;;;;1.65;0.30;;;;;;;17.69;100.00;99524.25;5058562;28;20048;-55
2022/05/22 08:34:16;;;;;;;2.30;0.55;;;;;;;17.91;100.00;99513.28;5056996;28;20114;-54
2022/05/22 08:37:00;;;;;;;1.33;0.17;;;;;;;17.44;100.00;99520.38;5062745;28;20097;-54
2022/05/22 08:39:45;;;;;;;3.20;0.32;;;;;;;17.14;100.00;99519.50;5059383;28;20067;-55
2022/05/22 08:43:10;;;;;;;2.50;0.30;;;;;;;16.41;100.00;99538.47;5059497;28;20126;-55
2022/05/22 08:46:12;;;;;;;3.33;0.20;;;;;;;16.45;100.00;99534.69;5059460;28;20043;-55
2022/05/22 08:48:59;;;;;;;2.72;0.30;;;;;;;17.16;100.00;99520.25;5058188;28;20083;-55
2022/05/22 08:51:50;;;;;;;2.28;0.43;;;;;;;17.66;100.00;99519.16;5059144;28;20057;-54
2022/05/22 08:54:41;;;;;;;2.47;0.50;;;;;;;16.78;100.00;99512.69;5058455;28;20040;-54
2022/05/22 09:00:43;;;;;;;2.72;0.40;;;;;;;16.62;100.00;99517.94;5058940;28;20772;-54
2022/05/22 09:03:40;;;;;;;2.47;0.30;;;;;;;15.83;100.00;99523.84;5059445;28;20057;-54
2022/05/22 09:06:30;;;;;;;1.05;0.20;;;;;;;16.04;100.00;99521.03;5058306;28;20064;-54
2022/05/22 09:09:15;;;;;;;2.20;0.20;;;;;;;15.31;100.00;99523.78;5059656;28;20052;-53
2022/05/22 09:12:02;;;;;;;2.70;0.38;;;;;;;14.60;100.00;99531.53;5060671;28;20048;-53
2022/05/22 09:15:01;;;;;;;2.03;0.30;;;;;;;14.85;100.00;99539.19;5064217;28;20049;-54
2022/05/22 09:18:01;;;;;;;1.75;0.20;;;;;;;14.49;100.00;99528.50;5057926;28;20120;-54
2022/05/22 09:20:45;;;;;;;1.25;0.20;;;;;;;14.71;100.00;99536.31;5060002;28;20059;-54
2022/05/22 09:23:58;;;;;;;1.85;0.30;;;;;;;14.67;100.00;99534.75;5059601;28;20686;-53
2022/05/22 09:26:47;;;;;;;2.20;0.30;;;;;;;14.41;100.00;99543.81;5058725;28;20040;-54
2022/05/22 09:30:16;;;;;;;3.30;0.43;;;;;;;14.53;100.00;99545.03;5056782;28;20050;-54
2022/05/22 09:33:14;;;;;;;0.68;0.10;;;;;;;15.35;100.00;99543.81;5047942;28;20056;-54
2022/05/22 09:36:46;;;;;;;2.13;0.32;;;;;;;15.73;100.00;99537.56;5062084;28;20052;-54
2022/05/22 09:39:44;;;;;;;1.77;0.40;;;;;;;15.62;100.00;99538.09;5034253;28;20084;-54
2022/05/22 09:42:48;;;;;;;2.83;0.57;;;;;;;15.00;100.00;99549.91;5032937;28;20284;-55
2022/05/22 09:45:48;;;;;;;2.13;0.52;;;;;;;14.72;100.00;99545.91;5054683;28;20117;-54
2022/05/22 09:48:38;;;;;;;1.10;0.40;;;;;;;14.25;100.00;99541.00;5059634;28;20048;-54
2022/05/22 10:01:37;;;;;;;1.65;0.30;;;;;;;14.22;100.00;99556.94;4996256;27;4004662;-94
2022/05/22 10:04:40;;;;;;;1.70;0.38;;;;;;;14.65;100.00;99540.06;5122829;27;20393;-95
2022/05/22 10:07:33;;;;;;;1.38;0.30;;;;;;;15.48;100.00;99551.13;5097512;27;20047;-94
2022/05/22 10:10:30;;;;;;;1.42;0.32;;;;;;;15.45;100.00;99538.94;5105534;27;20039;-96
2022/05/22 10:13:37;;;;;;;2.15;0.47;;;;;;;15.77;100.00;99550.56;5111735;27;20031;-95
2022/05/22 10:16:47;;;;;;;1.55;0.45;;;;;;;15.50;100.00;99536.94;5108170;27;20039;-95
2022/05/22 10:19:40;;;;;;;5.25;0.52;;;;;;;15.58;100.00;99549.75;5105977;27;20439;-94
2022/05/22 10:22:49;;;;;;;3.72;0.70;;;;;;;14.83;100.00;99548.06;5112946;27;20586;-95
2022/05/22 10:25:39;;;;;;;1.92;0.40;;;;;;;14.79;100.00;99557.06;5103685;27;20488;-94
2022/05/22 10:28:32;;;;;;;2.53;0.50;;;;;;;14.58;100.00;99540.44;5125007;27;20063;-94
2022/05/22 10:31:21;;;;;;;1.95;0.40;;;;;;;14.96;100.00;99549.22;5113431;27;21132;-94
2022/05/22 10:34:26;;;;;;;3.20;1.20;;;;;;;15.36;100.00;99545.50;5119218;27;20039;-94
2022/05/22 10:37:20;;;;;;;2.42;1.05;;;;;;;15.56;100.00;99547.16;5125443;27;20027;-94
2022/05/22 10:40:12;;;;;;;2.53;1.00;;;;;;;16.25;100.00;99554.25;5110438;27;20046;-94
2022/05/22 10:42:57;;;;;;;1.47;0.40;;;;;;;15.88;100.00;99537.66;5106374;27;20080;-94
2022/05/22 10:45:41;;;;;;;2.67;0.50;;;;;;;15.59;100.00;99548.81;5107610;27;20046;-94
2022/05/22 10:48:27;;;;;;;4.68;0.80;;;;;;;15.30;100.00;99543.16;5104358;27;20031;-95
2022/05/22 10:51:22;;;;;;;3.40;0.65;;;;;;;14.98;100.00;99567.59;5109838;27;20039;-94
2022/05/22 10:54:07;;;;;;;1.85;0.57;;;;;;;14.98;100.00;99567.59;5109284;27;20121;-94
2022/05/22 10:56:52;;;;;;;6.78;0.60;;;;;;;14.45;100.00;99542.75;5108502;27;20043;-94
2022/05/22 10:59:36;;;;;;;3.05;1.00;;;;;;;14.11;100.00;99567.09;5085905;27;20047;-92
2022/05/22 11:02:31;;;;;;;4.13;1.08;;;;;;;14.83;100.00;99558.63;5109388;27;20040;-94
2022/05/22 11:05:27;;;;;;;1.98;0.70;;;;;;;14.96;100.00;99579.06;5109642;27;20055;-94
2022/05/22 11:08:23;;;;;;;3.33;1.15;;;;;;;15.46;100.00;99559.09;5106674;27;20058;-93
2022/05/22 11:11:16;;;;;;;5.40;2.75;;;;;;;15.53;100.00;99578.13;5102863;27;20108;-94
2022/05/22 11:14:19;;;;;;;2.50;0.80;;;;;;;15.62;100.00;99557.41;5090233;28;20047;-93
2022/05/22 11:17:13;;;;;;;4.28;1.73;;;;;;;15.35;100.00;99558.78;5093934;27;20042;-93
2022/05/22 11:20:07;;;;;;;3.20;2.60;;;;;;;15.27;100.00;99559.13;5093633;27;20039;-94
2022/05/22 11:23:06;;;;;;;2.53;1.55;;;;;;;15.57;100.00;99571.78;5104401;27;20473;-93
2022/05/22 11:26:29;;;;;;;6.00;1.50;;;;;;;15.07;100.00;99580.34;5093313;27;20072;-94
2022/05/22 11:29:29;;;;;;;3.97;0.90;;;;;;;14.82;100.00;99584.13;5093641;27;20401;-93
2022/05/22 11:32:54;;;;;;;3.00;1.45;;;;;;;14.59;100.00;99564.09;5107024;27;20500;-94
2022/05/22 11:35:57;;;;;;;3.80;1.23;;;;;;;14.32;100.00;99555.59;5090416;27;20116;-95
2022/05/22 11:39:04;;;;;;;3.35;1.30;;;;;;;14.27;100.00;99586.56;5106665;27;20039;-95
2022/05/22 11:41:53;;;;;;;5.53;2.03;;;;;;;14.07;100.00;99571.66;5097365;27;20509;-95
2022/05/22 11:45:16;;;;;;;1.88;0.85;;;;;;;14.51;100.00;99573.28;5084948;27;20031;-94
2022/05/22 11:48:25;;;;;;;8.00;2.57;;;;;;;14.70;100.00;99559.19;5084930;27;20394;-94
2022/05/22 11:51:28;;;;;;;3.20;0.73;;;;;;;14.81;100.00;99557.81;5089526;27;20485;-94
2022/05/22 11:54:15;;;;;;;3.20;1.48;;;;;;;14.97;100.00;99566.72;5099213;27;20036;-94
2022/05/22 11:57:08;;;;;;;2.78;0.90;;;;;;;15.19;100.00;99562.16;5089256;27;20039;-93
2022/05/22 12:00:17;;;;;;;3.70;1.10;;;;;;;15.97;100.00;99564.53;5107504;27;20493;-93
2022/05/22 12:03:41;;;;;;;2.60;0.88;;;;;;;15.50;100.00;99552.78;5108299;27;20035;-94
2022/05/22 12:06:48;;;;;;;3.85;0.82;;;;;;;15.46;100.00;99558.25;5088096;27;20051;-93
2022/05/22 12:10:12;;;;;;;2.08;0.50;;;;;;;15.88;100.00;99555.28;5086789;27;20059;-93
2022/05/22 12:13:14;;;;;;;3.00;1.08;;;;;;;15.68;100.00;99553.66;5041326;27;20444;-93
2022/05/22 12:16:08;;;;;;;2.67;0.82;;;;;;;15.92;100.00;99554.19;5091343;27;20448;-94
2022/05/22 12:19:01;;;;;;;3.38;0.73;;;;;;;15.78;100.00;99541.69;5104340;28;20038;-94
2022/05/22 12:21:49;;;;;;;3.53;0.60;;;;;;;16.46;100.00;99552.25;5090184;27;20043;-93
2022/05/22 12:24:54;;;;;;;2.50;0.90;;;;;;;16.55;100.00;99553.56;5088982;28;20032;-94
2022/05/22 12:27:39;;;;;;;3.92;0.63;;;;;;;16.83;100.00;99529.13;5087303;28;20040;-93
2022/05/22 12:30:28;;;;;;;1.65;0.80;;;;;;;16.60;100.00;99525.06;5096282;27;20447;-94
2022/05/22 12:33:13;;;;;;;3.83;0.75;;;;;;;16.21;100.00;99523.63;5089847;27;20445;-94
2022/05/22 12:35:59;;;;;;;2.67;0.60;;;;;;;16.35;97.57;99529.06;5091596;27;20484;-93
2022/05/22 12:38:58;;;;;;;2.08;0.50;;;;;;;15.96;99.70;99524.06;5091346;27;20066;-93
2022/05/22 12:41:42;;;;;;;2.35;0.50;;;;;;;16.15;99.97;99537.16;5102257;27;20035;-93
2022/05/22 12:44:28;;;;;;;1.65;0.43;;;;;;;16.18;98.76;99509.72;5095114;27;20032;-93
2022/05/22 12:47:15;;;;;;;3.50;0.52;;;;;;;16.09;100.00;99522.50;5092541;27;20044;-93
2022/05/22 12:49:59;;;;;;;0.77;0.30;;;;;;;16.65;97.79;99519.56;5092079;28;20506;-93
2022/05/22 12:52:51;;;;;;;1.70;0.32;;;;;;;17.16;94.13;99513.19;5096066;27;20027;-93
2022/05/22 12:55:36;;;;;;;1.65;0.50;;;;;;;16.80;95.72;99500.22;5089924;27;20051;-94
2022/05/22 12:58:44;;;;;;;0.68;0.30;;;;;;;16.47;97.39;99522.25;5088278;27;20035;-93
2022/05/22 13:01:34;;;;;;;1.23;0.80;;;;;;;17.30;92.10;99512.41;5097353;27;20234;-94
2022/05/22 13:04:24;;;;;;;1.98;0.35;;;;;;;17.77;90.79;99510.59;5089844;27;20099;-93
2022/05/22 13:07:11;;;;;;;2.17;0.73;;;;;;;17.91;89.13;99510.66;5091662;27;20088;-94
2022/05/22 13:09:55;;;;;;;2.45;0.40;;;;;;;17.96;87.92;99500.59;5085111;27;20043;-93
2022/05/22 13:12:44;;;;;;;2.80;0.40;;;;;;;17.61;88.92;99492.91;5084268;28;20383;-94
2022/05/22 13:15:31;;;;;;;2.25;0.47;;;;;;;17.74;92.15;99495.69;5089132;27;20041;-93
2022/05/22 13:18:17;;;;;;;1.48;0.50;;;;;;;16.99;90.26;99489.47;5089542;27;20047;-93
2022/05/22 13:21:02;;;;;;;3.83;0.77;;;;;;;17.10;90.97;99492.38;5093506;27;20040;-94
2022/05/22 13:23:47;;;;;;;0.95;0.20;;;;;;;16.88;92.10;99490.06;5090529;27;20035;-92
2022/05/22 13:26:33;;;;;;;4.68;0.30;;;;;;;16.54;87.86;99484.00;5087641;27;20367;-94
2022/05/22 13:29:22;;;;;;;2.38;0.40;;;;;;;16.59;89.49;99487.22;5089418;27;20035;-94
2022/05/22 13:32:17;;;;;;;1.55;0.32;;;;;;;17.73;89.03;99497.50;5093766;27;20051;-94
2022/05/22 13:35:14;;;;;;;1.95;0.30;;;;;;;18.36;85.31;99472.53;5102732;27;20500;-93
2022/05/22 13:37:59;;;;;;;1.58;0.50;;;;;;;18.49;88.32;99469.97;5093132;27;20147;-94
2022/05/22 13:41:02;;;;;;;3.90;0.50;;;;;;;17.64;85.41;99490.09;5092043;27;20481;-93
2022/05/22 13:43:46;;;;;;;;;;;;;;;16.82;89.70;99487.78;5089418;28;20031;-93
2022/05/22 13:46:59;;;;;;;3.40;0.40;;;;;;;16.41;89.50;99482.06;5086735;28;19924;-94
2022/05/22 13:53:30;;;;;;;3.85;0.50;;;;;;;16.57;90.45;99494.41;5106065;28;19931;-94